Time;durP1;ratioP1;P1;durP2;ratioP2;P2;SDS_P1;SDS_P2;PMS_P1;PMS_P2;Temp;Humidity;BMP_temperature;BMP_pressure;BME280_temperature;BME280_humidity;BME280_pressure;Samples;Min_cycle;Max_cycle;Signal;HPM_P1;HPM_P2
2021/09/14 00:00:41;;;;;;;27.33;15.20;;;;;;;13.23;100.00;101508.63;5201305;28;20036;-73
2021/09/14 00:03:12;;;;;;;24.55;14.63;;;;;;;13.20;100.00;101509.78;5201259;28;20023;-72
2021/09/14 00:05:42;;;;;;;26.08;14.70;;;;;;;13.16;100.00;101508.41;5201074;28;20569;-73
2021/09/14 00:08:13;;;;;;;24.73;14.82;;;;;;;13.14;100.00;101504.19;5201392;28;20022;-72
2021/09/14 00:10:43;;;;;;;24.35;13.88;;;;;;;13.11;100.00;101508.06;5200767;28;20450;-71
2021/09/14 00:13:14;;;;;;;24.08;14.50;;;;;;;13.08;100.00;101504.88;5201454;28;20021;-73
2021/09/14 00:15:44;;;;;;;24.02;13.75;;;;;;;13.06;100.00;101504.19;5201516;28;20519;-72
2021/09/14 00:18:15;;;;;;;26.73;14.40;;;;;;;13.03;100.00;101509.91;5201079;28;20112;-73
2021/09/14 00:20:45;;;;;;;26.05;14.75;;;;;;;12.98;100.00;101499.63;5201582;28;20513;-72
2021/09/14 00:23:16;;;;;;;24.15;14.52;;;;;;;12.95;100.00;101508.91;5201038;28;20368;-72
2021/09/14 00:25:46;;;;;;;27.50;15.93;;;;;;;12.91;100.00;101507.53;5201570;28;20029;-73
2021/09/14 00:28:17;;;;;;;30.52;16.27;;;;;;;12.86;100.00;101506.34;5201287;28;20385;-72
2021/09/14 00:30:47;;;;;;;30.85;16.08;;;;;;;12.83;100.00;101512.06;5200763;28;20036;-72
2021/09/14 00:33:19;;;;;;;26.35;14.18;;;;;;;12.78;100.00;101507.16;5200956;28;20021;-73
2021/09/14 00:35:49;;;;;;;26.98;15.13;;;;;;;12.73;100.00;101505.97;5200988;28;20466;-73
2021/09/14 00:38:20;;;;;;;27.45;15.18;;;;;;;12.66;100.00;101505.78;5201166;28;20379;-73
2021/09/14 00:40:50;;;;;;;26.35;14.95;;;;;;;12.59;100.00;101507.44;5200611;28;20030;-73
2021/09/14 00:43:22;;;;;;;25.13;14.88;;;;;;;12.54;100.00;101502.53;5200805;28;20479;-72
2021/09/14 00:45:53;;;;;;;29.27;16.70;;;;;;;12.50;100.00;101503.91;5200881;28;20021;-73
2021/09/14 00:48:23;;;;;;;27.63;15.75;;;;;;;12.47;100.00;101501.53;5201265;28;20030;-73
2021/09/14 00:50:54;;;;;;;30.05;16.23;;;;;;;12.42;100.00;101503.84;5200821;28;20056;-72
2021/09/14 00:53:26;;;;;;;28.65;15.80;;;;;;;12.37;100.00;101501.66;5200513;28;20025;-73
2021/09/14 00:55:57;;;;;;;21.83;13.02;;;;;;;12.31;100.00;101501.47;5201033;28;20105;-72
2021/09/14 00:58:30;;;;;;;23.17;14.13;;;;;;;12.25;100.00;101494.00;5201035;28;20159;-72
2021/09/14 01:01:00;;;;;;;30.08;15.52;;;;;;;12.20;100.00;101489.16;5200984;28;20402;-73
2021/09/14 01:03:30;;;;;;;29.98;17.20;;;;;;;12.18;100.00;101499.22;5200862;28;20029;-73
2021/09/14 01:06:03;;;;;;;33.50;17.88;;;;;;;12.17;100.00;101493.00;5200997;28;20029;-73
2021/09/14 01:08:35;;;;;;;37.15;17.27;;;;;;;12.15;100.00;101486.94;5201343;28;20191;-73
2021/09/14 01:11:06;;;;;;;37.03;18.23;;;;;;;12.14;100.00;101485.22;5200778;28;20025;-73
2021/09/14 01:13:36;;;;;;;37.70;19.60;;;;;;;12.14;100.00;101485.22;5201120;28;20498;-71
2021/09/14 01:16:11;;;;;;;34.78;19.08;;;;;;;12.15;100.00;101480.72;5200895;28;20026;-71
2021/09/14 01:18:42;;;;;;;41.63;21.35;;;;;;;12.14;100.00;101474.47;5188326;28;20112;-71
2021/09/14 01:21:20;;;;;;;37.65;19.23;;;;;;;12.16;100.00;101477.84;5200811;28;20120;-72
2021/09/14 01:24:12;;;;;;;43.55;23.13;;;;;;;12.19;100.00;101476.69;5189538;28;20033;-72
2021/09/14 01:27:03;;;;;;;37.80;20.83;;;;;;;12.19;100.00;101477.53;5204626;28;20465;-72
2021/09/14 01:32:22;;;;;;;34.00;18.85;;;;;;;12.15;100.00;101460.03;5204993;28;20049;-73
2021/09/14 01:34:54;;;;;;;40.22;19.58;;;;;;;12.13;100.00;101462.03;5204684;28;20055;-72
2021/09/14 01:37:24;;;;;;;38.33;19.63;;;;;;;12.13;100.00;101462.03;5204133;28;20048;-72
2021/09/14 01:39:55;;;;;;;40.38;21.73;;;;;;;12.13;100.00;101455.81;5204429;28;20387;-73
2021/09/14 01:42:26;;;;;;;42.42;23.85;;;;;;;12.15;100.00;101465.41;5204261;28;20022;-73
2021/09/14 01:44:57;;;;;;;43.03;23.60;;;;;;;12.21;100.00;101463.09;5204006;28;20473;-72
2021/09/14 01:47:27;;;;;;;43.78;23.40;;;;;;;12.24;100.00;101460.06;5204745;28;20137;-73
2021/09/14 01:49:58;;;;;;;45.03;23.90;;;;;;;12.25;100.00;101459.03;5204396;28;20068;-72
2021/09/14 01:52:36;;;;;;;44.33;23.80;;;;;;;12.26;100.00;101458.91;5204396;28;20025;-74
2021/09/14 01:55:10;;;;;;;48.55;24.55;;;;;;;12.26;100.00;101460.75;5204175;28;20288;-72
2021/09/14 01:57:43;;;;;;;50.35;25.52;;;;;;;12.26;100.00;101469.66;5204097;28;20080;-72
2021/09/14 02:00:20;;;;;;;55.45;27.02;;;;;;;12.28;100.00;101458.72;5203453;28;20100;-72
2021/09/14 02:08:07;;;;;;;51.92;26.00;;;;;;;12.23;100.00;101463.75;5204202;28;20450;-72
2021/09/14 02:39:04;;;;;;;60.80;30.10;;;;;;;12.06;100.00;101428.72;5203489;28;20075;-72
2021/09/14 02:41:51;;;;;;;59.65;30.35;;;;;;;12.05;100.00;101431.56;5192150;28;20583;-71
2021/09/14 03:00:57;;;;;;;62.83;31.75;;;;;;;12.06;100.00;101412.59;5202865;28;20033;-71
2021/09/14 03:03:28;;;;;;;73.13;31.77;;;;;;;12.06;100.00;101403.69;5202721;28;20034;-72
2021/09/14 03:05:58;;;;;;;67.22;33.95;;;;;;;12.05;100.00;101405.53;5202755;28;20048;-72
2021/09/14 03:08:29;;;;;;;70.53;34.63;;;;;;;12.05;100.00;101397.47;5202746;28;20025;-71
2021/09/14 03:11:07;;;;;;;78.75;34.30;;;;;;;12.03;100.00;101402.16;5202069;28;20528;-71
2021/09/14 03:13:38;;;;;;;66.90;35.28;;;;;;;12.01;100.00;101406.03;5202982;28;20074;-71
2021/09/14 03:16:11;;;;;;;72.15;34.60;;;;;;;12.00;100.00;101405.19;5202677;28;20449;-72
2021/09/14 03:18:41;;;;;;;69.15;32.50;;;;;;;11.98;100.00;101409.88;5203264;28;20025;-73
2021/09/14 03:21:13;;;;;;;73.45;35.95;;;;;;;11.96;100.00;101417.25;5202565;28;20055;-72
2021/09/14 03:23:44;;;;;;;70.32;32.65;;;;;;;11.96;100.00;101421.81;5201819;28;20029;-72
2021/09/14 03:26:14;;;;;;;65.68;31.02;;;;;;;11.89;100.00;101422.41;5202286;28;20031;-72
2021/09/14 03:28:45;;;;;;;63.50;34.38;;;;;;;11.83;100.00;101422.22;5202536;28;20104;-72
2021/09/14 03:31:16;;;;;;;68.95;32.65;;;;;;;11.79;100.00;101416.28;5202076;28;20026;-72
2021/09/14 03:33:47;;;;;;;70.63;34.47;;;;;;;11.77;100.00;101412.09;5201988;28;20359;-72
2021/09/14 03:36:19;;;;;;;65.45;32.08;;;;;;;11.76;100.00;101410.41;5201858;28;20032;-72
2021/09/14 03:38:49;;;;;;;77.93;34.25;;;;;;;11.72;100.00;101409.03;5202620;28;20039;-73
2021/09/14 03:41:19;;;;;;;76.90;36.35;;;;;;;11.68;100.00;101409.34;5201662;28;20467;-72
2021/09/14 03:43:50;;;;;;;79.40;36.38;;;;;;;11.66;100.00;101408.69;5201815;28;20075;-72
2021/09/14 03:46:20;;;;;;;68.72;33.40;;;;;;;11.64;100.00;101421.41;5200482;28;20025;-73
2021/09/14 03:48:51;;;;;;;66.53;33.53;;;;;;;11.62;100.00;101414.53;5201812;28;20021;-72
2021/09/14 03:51:21;;;;;;;60.70;29.90;;;;;;;11.57;100.00;101408.78;5201948;28;20055;-72
2021/09/14 03:53:52;;;;;;;44.97;24.30;;;;;;;11.52;100.00;101409.25;5202141;28;20443;-73
2021/09/14 03:56:22;;;;;;;39.28;21.60;;;;;;;11.47;100.00;101410.75;5202113;28;20033;-72
2021/09/14 03:58:53;;;;;;;44.22;23.88;;;;;;;11.42;100.00;101405.84;5201462;28;20022;-73
2021/09/14 04:01:23;;;;;;;58.42;30.23;;;;;;;11.38;100.00;101405.31;5201860;28;20033;-72
2021/09/14 04:03:56;;;;;;;69.47;32.88;;;;;;;11.36;100.00;101401.94;5197841;28;20130;-72
2021/09/14 04:06:40;;;;;;;58.10;29.75;;;;;;;11.34;100.00;101403.09;5188222;28;20038;-72
2021/09/14 04:09:11;;;;;;;78.30;37.28;;;;;;;11.31;100.00;101392.69;5201283;28;20187;-72
2021/09/14 04:11:42;;;;;;;76.88;37.47;;;;;;;11.31;100.00;101390.84;5201292;28;20490;-73
2021/09/14 04:14:12;;;;;;;80.45;36.60;;;;;;;11.31;100.00;101390.84;5202353;28;20091;-74
2021/09/14 04:16:43;;;;;;;78.10;36.70;;;;;;;11.33;100.00;101387.97;5202454;28;20056;-72
2021/09/14 04:19:13;;;;;;;82.15;38.03;;;;;;;11.34;100.00;101384.28;5202346;28;20021;-72
2021/09/14 04:21:44;;;;;;;91.47;39.17;;;;;;;11.35;100.00;101391.38;5202026;28;20031;-72
2021/09/14 04:24:14;;;;;;;77.25;36.90;;;;;;;11.37;100.00;101378.59;5201082;28;20415;-72
2021/09/14 04:26:45;;;;;;;92.22;41.70;;;;;;;11.39;100.00;101377.44;5201316;28;20518;-73
2021/09/14 04:29:15;;;;;;;94.40;40.75;;;;;;;11.44;100.00;101381.50;5201196;28;20479;-72
2021/09/14 04:31:46;;;;;;;87.43;39.13;;;;;;;11.45;100.00;101380.50;5201339;28;20418;-72
2021/09/14 04:34:16;;;;;;;85.82;39.70;;;;;;;11.45;100.00;101384.03;5201314;28;20025;-72
2021/09/14 04:36:47;;;;;;;92.55;41.90;;;;;;;11.47;100.00;101387.41;5201193;28;20051;-73
2021/09/14 04:39:19;;;;;;;97.63;44.17;;;;;;;11.48;100.00;101386.41;5201123;28;20436;-72
2021/09/14 04:41:49;;;;;;;93.55;40.97;;;;;;;11.49;100.00;101385.38;5200935;28;20471;-71
2021/09/14 04:44:20;;;;;;;101.97;44.03;;;;;;;11.51;100.00;101380.72;5201130;28;20044;-72
2021/09/14 04:46:50;;;;;;;100.22;43.05;;;;;;;11.53;100.00;101386.75;5201301;28;20041;-72
2021/09/14 04:49:21;;;;;;;101.20;44.85;;;;;;;11.55;100.00;101386.63;5201592;28;20026;-72
2021/09/14 04:51:52;;;;;;;97.57;43.40;;;;;;;11.57;100.00;101384.59;5201217;28;20022;-72
2021/09/14 04:54:22;;;;;;;95.05;44.60;;;;;;;11.56;100.00;101377.56;5201183;28;20061;-72
2021/09/14 04:56:53;;;;;;;92.93;43.15;;;;;;;11.57;100.00;101379.22;5202599;28;20473;-73
2021/09/14 04:59:24;;;;;;;100.22;43.95;;;;;;;11.57;100.00;101368.47;5204601;28;20029;-72
2021/09/14 05:01:54;;;;;;;93.03;42.55;;;;;;;11.58;100.00;101379.06;5205331;28;20021;-72
2021/09/14 05:04:25;;;;;;;96.35;44.60;;;;;;;11.57;100.00;101366.63;5204971;28;20422;-71
2021/09/14 05:06:55;;;;;;;93.88;41.47;;;;;;;11.59;100.00;101366.47;5204932;28;20033;-72
2021/09/14 05:09:26;;;;;;;92.72;42.72;;;;;;;11.57;100.00;101361.25;5204752;28;20079;-73
2021/09/14 05:11:56;;;;;;;88.60;41.85;;;;;;;11.57;100.00;101366.63;5204576;28;20025;-73
2021/09/14 05:14:27;;;;;;;89.10;40.58;;;;;;;11.55;100.00;101360.59;5204913;28;20032;-73
2021/09/14 05:16:57;;;;;;;92.30;41.78;;;;;;;11.55;100.00;101363.28;5204842;28;20090;-72
2021/09/14 05:19:31;;;;;;;93.47;41.78;;;;;;;11.54;100.00;101363.41;5204891;28;20506;-72
2021/09/14 05:22:03;;;;;;;92.50;40.85;;;;;;;11.52;100.00;101366.28;5204752;28;20029;-72
2021/09/14 05:24:34;;;;;;;103.45;42.63;;;;;;;11.53;100.00;101365.25;5204304;28;20029;-72
2021/09/14 05:27:05;;;;;;;97.60;42.25;;;;;;;11.55;100.00;101355.22;5204603;28;20538;-72
2021/09/14 05:29:35;;;;;;;94.90;42.83;;;;;;;11.57;100.00;101357.72;5204745;28;20029;-72
2021/09/14 05:32:06;;;;;;;96.72;43.47;;;;;;;11.59;100.00;101361.94;5204773;28;20098;-72
2021/09/14 05:34:37;;;;;;;90.47;42.30;;;;;;;11.62;100.00;101356.25;5204465;28;20313;-72
2021/09/14 05:37:07;;;;;;;91.82;43.30;;;;;;;11.68;100.00;101368.19;5204277;28;20324;-72
2021/09/14 05:39:38;;;;;;;87.88;41.92;;;;;;;11.72;100.00;101366.03;5204538;28;20037;-73
2021/09/14 05:42:09;;;;;;;83.32;41.53;;;;;;;11.76;100.00;101359.34;5204569;28;20030;-72
2021/09/14 05:44:39;;;;;;;97.03;41.13;;;;;;;11.78;100.00;101355.47;5205076;28;20132;-72
2021/09/14 05:47:10;;;;;;;90.80;40.42;;;;;;;11.82;100.00;101356.03;5204185;28;20028;-72
2021/09/14 05:49:40;;;;;;;88.00;41.85;;;;;;;11.84;100.00;101364.75;5204108;28;20029;-72
2021/09/14 05:52:10;;;;;;;83.28;40.88;;;;;;;11.87;100.00;101359.06;5204508;28;20021;-73
2021/09/14 05:54:41;;;;;;;89.68;41.45;;;;;;;11.91;100.00;101355.91;5204603;28;20057;-71
2021/09/14 05:57:11;;;;;;;88.15;40.72;;;;;;;11.94;100.00;101354.72;5204103;28;20076;-71
2021/09/14 05:59:42;;;;;;;82.53;40.47;;;;;;;11.96;100.00;101354.56;5203348;28;20021;-71
2021/09/14 06:02:12;;;;;;;91.03;42.17;;;;;;;12.02;100.00;101351.22;5204337;28;20026;-72
2021/09/14 06:04:43;;;;;;;83.55;40.08;;;;;;;12.05;100.00;101348.19;5203869;28;20037;-71
2021/09/14 06:07:13;;;;;;;80.85;40.10;;;;;;;12.11;100.00;101343.03;5203877;28;20456;-72
2021/09/14 06:09:44;;;;;;;87.93;39.35;;;;;;;12.27;100.00;101344.91;5185042;28;20376;-71
2021/09/14 06:12:14;;;;;;;89.55;41.90;;;;;;;12.47;100.00;101341.91;5203983;28;20475;-71
2021/09/14 06:14:45;;;;;;;77.43;39.42;;;;;;;12.73;100.00;101347.13;5203534;28;20060;-72
2021/09/14 06:17:16;;;;;;;69.32;36.92;;;;;;;13.11;100.00;101337.53;5203817;28;20083;-72
2021/09/14 06:19:46;;;;;;;74.60;38.33;;;;;;;13.52;100.00;101334.75;5203612;28;20096;-72
2021/09/14 06:22:20;;;;;;;63.95;34.47;;;;;;;14.10;100.00;101333.47;5203488;28;20022;-72
2021/09/14 06:24:50;;;;;;;64.90;33.28;;;;;;;14.73;100.00;101332.38;5203062;28;20434;-72
2021/09/14 06:27:21;;;;;;;49.92;28.92;;;;;;;15.19;100.00;101330.44;5203933;28;20021;-71
2021/09/14 06:29:51;;;;;;;45.40;28.08;;;;;;;15.43;100.00;101323.94;5203587;28;20049;-72
2021/09/14 06:32:23;;;;;;;48.35;28.15;;;;;;;15.72;100.00;101327.69;5199820;28;20043;-72
2021/09/14 06:34:54;;;;;;;45.03;27.80;;;;;;;16.01;100.00;101327.63;5201971;28;20014;-71
2021/09/14 06:37:25;;;;;;;47.65;28.25;;;;;;;16.13;100.00;101321.72;5201913;28;20116;-72
2021/09/14 06:39:55;;;;;;;50.75;29.38;;;;;;;16.15;100.00;101316.94;5201882;28;20029;-72
2021/09/14 06:42:28;;;;;;;50.53;29.70;;;;;;;15.97;100.00;101333.63;5202203;28;20025;-72
2021/09/14 06:44:59;;;;;;;51.70;29.10;;;;;;;16.03;100.00;101333.69;5201928;28;20021;-72
2021/09/14 06:47:29;;;;;;;45.30;28.35;;;;;;;16.49;100.00;101335.22;5201910;28;20482;-72
2021/09/14 06:50:00;;;;;;;47.05;27.63;;;;;;;17.00;100.00;101329.66;5201738;28;20029;-72
2021/09/14 06:52:30;;;;;;;44.63;27.58;;;;;;;17.30;100.00;101338.41;5202120;28;20438;-72
2021/09/14 06:55:01;;;;;;;43.92;28.30;;;;;;;17.40;100.00;101343.50;5202037;28;20112;-73
2021/09/14 06:57:31;;;;;;;42.25;26.25;;;;;;;17.25;100.00;101340.88;5201902;28;20394;-73
2021/09/14 07:00:03;;;;;;;41.97;27.40;;;;;;;17.12;100.00;101341.66;5200919;28;20041;-72
2021/09/14 07:02:33;;;;;;;46.80;27.13;;;;;;;16.88;100.00;101342.91;5201458;28;20101;-72
2021/09/14 07:05:05;;;;;;;49.78;29.17;;;;;;;16.75;100.00;101349.03;5201484;28;20119;-72
2021/09/14 07:07:35;;;;;;;45.75;27.90;;;;;;;16.99;100.00;101347.78;5188181;28;20509;-72
2021/09/14 07:10:06;;;;;;;45.17;26.40;;;;;;;17.46;100.00;101350.81;5200989;28;20021;-72
2021/09/14 07:12:36;;;;;;;43.95;25.10;;;;;;;17.67;100.00;101352.59;5216635;28;20398;-72
2021/09/14 07:15:08;;;;;;;41.50;26.17;;;;;;;17.81;100.00;101355.22;5201468;28;20386;-72
2021/09/14 07:17:38;;;;;;;39.25;24.60;;;;;;;17.92;100.00;101356.50;5201652;28;20455;-72
2021/09/14 07:20:09;;;;;;;40.75;25.20;;;;;;;18.01;100.00;101354.47;5201250;28;20053;-72
2021/09/14 07:22:40;;;;;;;38.85;24.00;;;;;;;17.79;100.00;101346.44;5201337;28;20236;-72
2021/09/14 07:25:11;;;;;;;37.67;24.67;;;;;;;17.69;100.00;101345.13;5200564;28;20033;-72
2021/09/14 07:27:41;;;;;;;45.47;24.50;;;;;;;17.51;100.00;101351.91;5201424;28;20168;-72
2021/09/14 07:30:12;;;;;;;42.45;26.42;;;;;;;17.28;100.00;101343.22;5201198;28;20100;-72
2021/09/14 07:32:43;;;;;;;48.83;27.67;;;;;;;17.17;100.00;101343.72;5201199;28;20037;-72
2021/09/14 07:35:13;;;;;;;42.92;25.63;;;;;;;17.02;100.00;101342.00;5200946;28;20558;-71
2021/09/14 07:37:43;;;;;;;45.70;27.20;;;;;;;16.98;100.00;101345.28;5199694;28;20342;-72
2021/09/14 07:40:14;;;;;;;40.33;25.65;;;;;;;16.96;100.00;101361.72;5200613;28;20029;-72
2021/09/14 07:42:45;;;;;;;43.90;26.55;;;;;;;16.97;100.00;101354.44;5200950;28;20120;-72
2021/09/14 07:45:15;;;;;;;42.78;26.33;;;;;;;17.37;100.00;101362.84;5200765;28;20471;-73
2021/09/14 07:47:46;;;;;;;41.78;24.63;;;;;;;18.15;100.00;101367.06;5200602;28;20431;-72
2021/09/14 07:50:16;;;;;;;43.15;25.38;;;;;;;18.80;100.00;101362.00;5200602;28;20047;-72
2021/09/14 07:52:47;;;;;;;40.35;24.42;;;;;;;18.78;100.00;101353.25;5200809;28;20018;-72
2021/09/14 07:55:18;;;;;;;41.95;23.38;;;;;;;18.58;100.00;101348.59;5183008;28;20033;-72
2021/09/14 07:57:48;;;;;;;36.10;22.70;;;;;;;18.41;100.00;101355.44;5200825;28;20117;-72
2021/09/14 08:00:19;;;;;;;38.40;22.13;;;;;;;18.37;100.00;101349.59;5200353;28;20402;-73
2021/09/14 08:02:55;;;;;;;39.40;22.63;;;;;;;18.82;100.00;101355.31;5200440;28;20194;-72
2021/09/14 08:05:27;;;;;;;33.95;21.08;;;;;;;19.44;100.00;101341.47;5200436;28;20404;-72
2021/09/14 08:07:58;;;;;;;38.78;20.88;;;;;;;20.39;100.00;101346.13;5200901;28;20421;-72
2021/09/14 08:10:28;;;;;;;36.90;21.23;;;;;;;21.35;100.00;101346.88;5182447;28;20022;-73
2021/09/14 08:12:59;;;;;;;34.13;19.50;;;;;;;21.92;100.00;101348.31;5200132;28;20091;-73
2021/09/14 08:15:30;;;;;;;27.80;17.38;;;;;;;22.36;100.00;101362.72;5200518;28;20098;-72
2021/09/14 08:18:00;;;;;;;21.20;15.95;;;;;;;22.70;100.00;101360.31;5200610;28;20030;-73
2021/09/14 08:20:31;;;;;;;22.42;16.90;;;;;;;22.36;100.00;101357.25;5200080;28;20049;-72
2021/09/14 08:23:01;;;;;;;25.88;16.85;;;;;;;21.53;100.00;101351.50;5200390;28;20037;-72
2021/09/14 08:25:32;;;;;;;24.75;16.83;;;;;;;21.01;100.00;101345.50;5200079;28;20022;-73
2021/09/14 08:28:04;;;;;;;26.42;17.27;;;;;;;20.61;100.00;101346.63;5200420;28;20026;-72
2021/09/14 08:30:34;;;;;;;32.67;16.85;;;;;;;20.28;100.00;101344.09;5199881;28;20104;-73
2021/09/14 08:33:05;;;;;;;26.02;16.70;;;;;;;20.01;100.00;101337.13;5200074;28;20104;-72
2021/09/14 08:35:36;;;;;;;25.42;15.82;;;;;;;20.14;100.00;101335.16;5200062;28;20029;-72
2021/09/14 08:38:06;;;;;;;24.42;14.93;;;;;;;20.58;100.00;101338.06;5199954;28;20385;-72
2021/09/14 08:40:40;;;;;;;44.28;17.08;;;;;;;21.10;100.00;101345.00;5199798;28;20061;-72
2021/09/14 08:43:12;;;;;;;30.33;15.55;;;;;;;21.62;100.00;101345.53;5200409;28;20022;-73
2021/09/14 08:45:43;;;;;;;23.27;14.75;;;;;;;22.15;100.00;101342.19;5199693;28;20390;-72
2021/09/14 08:48:16;;;;;;;21.30;14.38;;;;;;;22.25;100.00;101343.53;5199896;28;20035;-72
2021/09/14 08:50:46;;;;;;;24.33;14.48;;;;;;;22.23;100.00;101339.13;5199381;28;20076;-73
2021/09/14 08:53:17;;;;;;;21.23;14.77;;;;;;;22.37;100.00;101345.22;5200185;28;20471;-72
2021/09/14 08:55:47;;;;;;;21.27;14.73;;;;;;;22.41;100.00;101343.72;5200332;28;20092;-73
2021/09/14 08:58:18;;;;;;;20.52;14.18;;;;;;;22.76;100.00;101342.97;5200004;28;20029;-73
2021/09/14 09:00:49;;;;;;;20.90;13.50;;;;;;;23.09;100.00;101353.38;5199264;28;20278;-72
2021/09/14 09:03:29;;;;;;;19.52;12.82;;;;;;;23.33;100.00;101358.84;5200085;28;20029;-72
2021/09/14 09:06:00;;;;;;;23.20;12.52;;;;;;;23.63;100.00;101362.31;5199902;28;20387;-73
2021/09/14 09:08:31;;;;;;;20.42;12.27;;;;;;;23.75;100.00;101365.88;5200186;28;20096;-74
2021/09/14 09:11:08;;;;;;;22.25;12.02;;;;;;;23.60;100.00;101361.94;5199321;28;20506;-74
2021/09/14 09:13:44;;;;;;;15.75;10.98;;;;;;;23.93;100.00;101364.88;5199396;28;20029;-73
2021/09/14 09:16:23;;;;;;;19.77;11.70;;;;;;;23.80;100.00;101356.94;5199630;28;20387;-72
2021/09/14 09:18:57;;;;;;;17.42;11.63;;;;;;;23.36;100.00;101358.41;5199699;28;20116;-73
2021/09/14 09:21:30;;;;;;;18.43;11.83;;;;;;;23.56;100.00;101366.25;5199888;28;20026;-73
2021/09/14 09:24:04;;;;;;;16.92;11.23;;;;;;;23.51;100.00;101356.84;5199135;28;20037;-73
2021/09/14 09:26:39;;;;;;;16.70;10.53;;;;;;;23.86;100.00;101358.72;5199847;28;20455;-73
2021/09/14 09:29:18;;;;;;;15.50;10.40;;;;;;;24.02;100.00;101359.84;5199027;28;20087;-73
2021/09/14 09:31:51;;;;;;;14.55;10.75;;;;;;;24.10;100.00;101356.75;5199625;28;20022;-74
2021/09/14 09:34:28;;;;;;;18.90;11.73;;;;;;;24.23;100.00;101353.69;5199782;28;20104;-73
2021/09/14 09:37:07;;;;;;;22.10;11.50;;;;;;;24.23;100.00;101352.84;5199420;28;20033;-75
2021/09/14 09:39:45;;;;;;;19.45;11.75;;;;;;;24.04;100.00;101350.28;5199368;28;20434;-73
2021/09/14 09:42:16;;;;;;;18.33;11.48;;;;;;;23.98;100.00;101343.06;5199692;28;20033;-73
2021/09/14 09:44:56;;;;;;;21.27;12.35;;;;;;;23.78;100.00;101334.41;5202233;28;20669;-73
2021/09/14 09:47:26;;;;;;;17.27;11.43;;;;;;;24.04;100.00;101333.84;5203105;28;20064;-73
2021/09/14 09:49:57;;;;;;;24.45;12.18;;;;;;;24.26;100.00;101327.72;5202814;28;20022;-73
2021/09/14 09:52:28;;;;;;;18.95;10.90;;;;;;;24.54;100.00;101319.47;5203255;28;20097;-74
2021/09/14 09:54:59;;;;;;;21.85;11.82;;;;;;;24.91;100.00;101329.16;5203115;28;20099;-74
2021/09/14 09:57:30;;;;;;;20.05;11.35;;;;;;;25.01;100.00;101319.16;5203272;28;20025;-74
2021/09/14 10:00:00;;;;;;;17.63;9.30;;;;;;;25.07;100.00;101314.59;5201267;28;20021;-73
2021/09/14 10:02:31;;;;;;;17.98;10.50;;;;;;;24.70;100.00;101317.84;5203264;28;20028;-74
2021/09/14 10:05:05;;;;;;;19.15;10.80;;;;;;;24.50;100.00;101318.31;5202466;28;20112;-74
2021/09/14 10:07:36;;;;;;;22.20;11.70;;;;;;;24.44;100.00;101319.28;5202382;28;20033;-73
2021/09/14 10:10:07;;;;;;;19.80;11.02;;;;;;;24.58;100.00;101325.28;5202341;28;20039;-73
2021/09/14 10:12:38;;;;;;;19.02;11.32;;;;;;;24.80;100.00;101319.91;5203077;28;20017;-73
2021/09/14 10:15:12;;;;;;;17.80;10.68;;;;;;;24.75;100.00;101325.28;5202752;28;20116;-73
2021/09/14 10:17:54;;;;;;;16.58;10.93;;;;;;;24.78;100.00;101322.88;5202785;28;20717;-75
2021/09/14 10:20:25;;;;;;;18.23;9.88;;;;;;;24.99;100.00;101321.28;5202213;28;20037;-73
2021/09/14 10:22:59;;;;;;;16.70;10.82;;;;;;;25.04;100.00;101328.78;5202425;28;20097;-73
2021/09/14 10:25:30;;;;;;;15.95;10.38;;;;;;;24.83;100.00;101337.78;5202557;28;20379;-74
2021/09/14 10:28:07;;;;;;;13.63;9.80;;;;;;;24.28;100.00;101337.34;5202489;28;20026;-73
2021/09/14 10:30:39;;;;;;;16.73;10.30;;;;;;;24.08;100.00;101333.38;5201839;28;20048;-73
2021/09/14 10:33:20;;;;;;;17.90;10.15;;;;;;;24.31;100.00;101327.81;5202425;28;20033;-74
2021/09/14 10:35:51;;;;;;;14.70;8.45;;;;;;;24.23;100.00;101323.53;5202437;28;20029;-73
2021/09/14 10:38:23;;;;;;;11.63;8.02;;;;;;;24.19;100.00;101321.53;5202204;28;20120;-75
2021/09/14 10:40:55;;;;;;;12.25;9.23;;;;;;;24.03;100.00;101314.91;5201677;28;20029;-73
2021/09/14 10:43:40;;;;;;;8.85;7.63;;;;;;;23.99;100.00;101314.56;5184858;28;20069;-74
2021/09/14 10:46:20;;;;;;;13.20;9.00;;;;;;;23.98;100.00;101309.34;5202923;28;20394;-73
2021/09/14 10:48:52;;;;;;;11.45;8.32;;;;;;;23.93;100.00;101301.84;5203208;28;20033;-74
2021/09/14 10:51:23;;;;;;;11.35;8.35;;;;;;;23.86;100.00;101301.16;5203333;28;20049;-74
2021/09/14 10:53:56;;;;;;;11.63;8.18;;;;;;;23.73;100.00;101291.31;5203555;28;20510;-73
2021/09/14 10:56:29;;;;;;;19.95;9.48;;;;;;;23.78;100.00;101290.59;5204666;28;20026;-73
2021/09/14 10:58:59;;;;;;;13.82;9.50;;;;;;;23.62;100.00;101291.31;5204737;28;20052;-72
2021/09/14 11:01:31;;;;;;;14.55;10.07;;;;;;;23.64;100.00;101284.53;5203092;28;20412;-73
2021/09/14 11:04:01;;;;;;;15.02;8.98;;;;;;;23.57;100.00;101294.78;5202720;28;20103;-73
2021/09/14 11:06:32;;;;;;;18.02;9.75;;;;;;;23.55;100.00;101290.63;5197331;28;20026;-73
2021/09/14 11:09:05;;;;;;;11.13;9.05;;;;;;;23.63;100.00;101287.50;5177012;28;20044;-75
2021/09/14 11:11:36;;;;;;;14.15;9.43;;;;;;;23.69;100.00;101284.66;5202389;28;20017;-72
2021/09/14 11:14:06;;;;;;;14.35;9.68;;;;;;;23.35;100.00;101286.38;5202433;28;20024;-73
2021/09/14 11:16:37;;;;;;;14.68;9.63;;;;;;;23.05;100.00;101285.69;5202535;28;20069;-74
2021/09/14 11:19:07;;;;;;;18.52;10.63;;;;;;;23.26;100.00;101271.41;5202078;28;20057;-74
2021/09/14 11:21:44;;;;;;;14.68;10.00;;;;;;;23.08;100.00;101275.09;5202678;28;20029;-75
2021/09/14 11:24:20;;;;;;;17.50;10.77;;;;;;;23.05;100.00;101275.59;5202096;28;20041;-73
2021/09/14 11:26:51;;;;;;;16.02;10.38;;;;;;;23.11;100.00;101273.78;5201835;28;20021;-73
2021/09/14 11:29:21;;;;;;;16.30;9.77;;;;;;;23.06;100.00;101273.69;5201875;28;20056;-74
2021/09/14 11:31:52;;;;;;;14.40;9.73;;;;;;;23.12;100.00;101272.72;5202070;28;20025;-73
2021/09/14 11:34:23;;;;;;;15.00;10.68;;;;;;;23.22;100.00;101267.47;5202263;28;20108;-73
2021/09/14 11:36:53;;;;;;;15.48;9.77;;;;;;;23.37;100.00;101270.53;5201844;28;20037;-73
2021/09/14 11:39:35;;;;;;;13.45;10.10;;;;;;;23.37;100.00;101266.97;5201654;28;20033;-73
2021/09/14 11:42:09;;;;;;;18.88;10.70;;;;;;;23.28;100.00;101274.72;5201866;28;20518;-73
2021/09/14 11:44:42;;;;;;;17.92;10.80;;;;;;;23.18;100.00;101275.31;5201787;28;20541;-73
2021/09/14 11:47:12;;;;;;;16.67;10.98;;;;;;;22.75;100.00;101273.75;5201897;28;20112;-73
2021/09/14 11:49:51;;;;;;;20.70;11.60;;;;;;;22.73;100.00;101283.25;5201137;28;20125;-73
2021/09/14 11:52:21;;;;;;;19.25;11.43;;;;;;;22.65;100.00;101275.41;5189213;28;20018;-74
2021/09/14 11:54:53;;;;;;;15.80;11.10;;;;;;;22.76;100.00;101285.53;5201723;28;20079;-72
2021/09/14 11:57:23;;;;;;;22.23;11.63;;;;;;;22.70;100.00;101283.75;5184144;28;20506;-74
2021/09/14 11:59:54;;;;;;;16.15;10.95;;;;;;;22.52;100.00;101283.81;5201481;28;20025;-73
2021/09/14 12:02:24;;;;;;;20.92;10.55;;;;;;;22.66;100.00;101288.84;5201715;28;20581;-72
2021/09/14 12:04:59;;;;;;;15.90;10.77;;;;;;;22.45;100.00;101298.44;5201401;28;20028;-73
2021/09/14 12:07:30;;;;;;;;;;;;;;;22.58;100.00;101299.28;5201803;28;20032;-74
2021/09/14 12:10:03;;;;;;;18.05;11.18;;;;;;;22.46;100.00;101294.63;5201760;28;19935;-72
2021/09/14 12:12:33;;;;;;;17.25;11.57;;;;;;;22.36;100.00;101297.09;5201587;28;20023;-72
2021/09/14 12:15:09;;;;;;;19.95;11.13;;;;;;;22.25;100.00;101294.34;5198712;28;20025;-72